Time;durP1;ratioP1;P1;durP2;ratioP2;P2;SDS_P1;SDS_P2;PMS_P1;PMS_P2;Temp;Humidity;BMP_temperature;BMP_pressure;BME280_temperature;BME280_humidity;BME280_pressure;Samples;Min_cycle;Max_cycle;Signal;HPM_P1;HPM_P2
2022/05/04 00:01:20;;;;;;;9.60;8.60;;;;;;;11.28;61.26;94611.06;5058961;28;20270;-73
2022/05/04 00:03:45;;;;;;;12.00;9.30;;;;;;;11.30;61.54;94610.84;5062794;28;20268;-73
2022/05/04 00:06:11;;;;;;;9.77;8.83;;;;;;;11.91;59.13;94608.09;5064957;28;20166;-73
2022/05/04 00:08:37;;;;;;;10.60;7.90;;;;;;;11.58;59.71;94615.13;5064181;28;20623;-73
2022/05/04 00:11:04;;;;;;;9.50;8.60;;;;;;;11.49;59.90;94619.75;5058018;28;20166;-73
2022/05/04 00:13:31;;;;;;;7.90;7.10;;;;;;;11.26;60.90;94618.31;5056955;28;20413;-72
2022/05/04 00:15:57;;;;;;;9.23;7.40;;;;;;;11.32;60.59;94611.47;5056407;28;20418;-73
2022/05/04 00:18:23;;;;;;;11.90;7.80;;;;;;;11.22;60.83;94614.47;5054080;28;20459;-74
2022/05/04 00:20:48;;;;;;;7.77;7.07;;;;;;;11.11;61.47;94613.22;5064788;28;20449;-72
2022/05/04 00:23:13;;;;;;;8.90;8.13;;;;;;;11.09;61.87;94607.38;5064140;28;20186;-72
2022/05/04 00:25:39;;;;;;;9.17;8.37;;;;;;;11.07;62.25;94605.97;5066954;28;20182;-72
2022/05/04 00:28:05;;;;;;;9.00;8.10;;;;;;;11.01;62.29;94612.81;5062736;28;20217;-72
2022/05/04 00:30:32;;;;;;;9.73;8.73;;;;;;;11.09;62.49;94606.59;5059002;28;20220;-73
2022/05/04 00:32:59;;;;;;;9.47;8.57;;;;;;;11.13;62.02;94606.00;5064023;28;20182;-73
2022/05/04 00:35:25;;;;;;;9.63;8.57;;;;;;;11.13;62.16;94605.19;5060787;28;20417;-73
2022/05/04 00:37:50;;;;;;;8.10;7.27;;;;;;;11.17;61.98;94608.22;5062592;28;20428;-72
2022/05/04 00:40:16;;;;;;;9.27;8.40;;;;;;;11.16;61.57;94619.72;5062937;28;20277;-73
2022/05/04 00:42:41;;;;;;;10.97;8.77;;;;;;;11.07;62.08;94619.06;5064705;28;20254;-73
2022/05/04 00:45:07;;;;;;;9.10;8.20;;;;;;;11.09;62.19;94628.34;5061646;28;20174;-73
2022/05/04 00:47:33;;;;;;;9.43;8.53;;;;;;;11.18;61.88;94628.19;5063850;28;20681;-73
2022/05/04 00:50:04;;;;;;;9.50;8.70;;;;;;;11.20;61.92;94632.19;5057257;28;20182;-73
2022/05/04 00:52:32;;;;;;;8.43;7.63;;;;;;;11.25;61.31;94628.97;5092732;28;20171;-72
2022/05/04 00:54:59;;;;;;;7.80;7.00;;;;;;;11.03;61.19;94626.50;5043929;28;20429;-72
2022/05/04 01:00:11;;;;;;;9.40;8.50;;;;;;;10.88;61.78;94639.75;5065278;28;20427;-73
2022/05/04 01:02:41;;;;;;;8.33;7.70;;;;;;;10.85;61.37;94640.16;5064849;28;20538;-72
2022/05/04 01:05:09;;;;;;;8.73;7.93;;;;;;;10.85;61.64;94650.63;5064017;28;20460;-73
2022/05/04 01:07:36;;;;;;;8.87;7.97;;;;;;;10.88;62.22;94646.81;5064975;28;20413;-73
2022/05/04 01:10:04;;;;;;;9.00;8.17;;;;;;;11.02;61.13;94651.09;5064247;28;20429;-73
2022/05/04 01:12:29;;;;;;;7.73;7.03;;;;;;;11.04;61.10;94640.41;5064310;28;20436;-73
2022/05/04 01:14:54;;;;;;;7.60;6.87;;;;;;;10.98;60.35;94646.44;5064329;28;20427;-72
2022/05/04 01:17:20;;;;;;;8.53;7.63;;;;;;;10.87;61.26;94643.41;5064987;28;20174;-72
2022/05/04 01:19:45;;;;;;;9.30;8.40;;;;;;;10.61;62.30;94638.84;5065032;28;20232;-73
2022/05/04 01:22:11;;;;;;;9.20;8.30;;;;;;;10.64;62.63;94641.09;5067854;28;20669;-73
2022/05/04 01:24:38;;;;;;;8.20;7.43;;;;;;;10.70;61.94;94632.44;5066457;28;20202;-73
2022/05/04 01:27:09;;;;;;;8.20;7.40;;;;;;;10.71;62.10;94633.25;5059866;28;20200;-73
2022/05/04 01:29:34;;;;;;;8.10;7.30;;;;;;;10.72;62.23;94630.44;5068186;28;20492;-73
2022/05/04 01:32:00;;;;;;;8.80;7.90;;;;;;;10.70;61.67;94635.06;5067970;28;20452;-73
2022/05/04 01:34:28;;;;;;;9.27;7.27;;;;;;;10.83;61.03;94634.31;5068124;28;20205;-73
2022/05/04 01:36:53;;;;;;;9.37;7.30;;;;;;;10.71;61.64;94639.28;5067969;28;20174;-72
2022/05/04 01:39:19;;;;;;;9.30;8.40;;;;;;;10.45;62.77;94639.16;5067741;28;21120;-72
2022/05/04 01:42:03;;;;;;;8.27;6.20;;;;;;;10.46;62.23;94636.34;5068265;28;20200;-72
2022/05/04 01:44:32;;;;;;;9.57;8.67;;;;;;;10.54;62.16;94638.81;5058634;28;20179;-72
2022/05/04 01:46:58;;;;;;;8.13;7.43;;;;;;;10.78;61.56;94635.91;5068492;28;20456;-72
2022/05/04 01:49:23;;;;;;;12.90;7.50;;;;;;;10.80;60.85;94636.53;5067606;28;20470;-72
2022/05/04 01:51:49;;;;;;;8.13;7.33;;;;;;;11.03;60.52;94638.81;5064088;28;20170;-72
2022/05/04 01:54:14;;;;;;;10.07;7.60;;;;;;;10.74;61.01;94640.72;5062877;28;20230;-72
2022/05/04 01:56:40;;;;;;;7.40;6.70;;;;;;;10.47;62.13;94637.16;5065544;28;20201;-73
2022/05/04 01:59:05;;;;;;;7.87;7.17;;;;;;;10.83;61.04;94628.25;5067821;28;20174;-73
2022/05/04 02:01:31;;;;;;;8.77;6.43;;;;;;;10.39;62.34;94626.88;5062348;28;20198;-73
2022/05/04 02:03:58;;;;;;;8.47;7.57;;;;;;;10.39;62.48;94627.66;5054242;28;20176;-73
2022/05/04 02:06:23;;;;;;;7.00;6.30;;;;;;;10.48;62.42;94625.72;5062925;28;20202;-73
2022/05/04 02:08:49;;;;;;;7.43;6.73;;;;;;;10.55;62.14;94623.94;5067868;28;20420;-73
2022/05/04 02:11:16;;;;;;;8.17;6.70;;;;;;;10.60;61.89;94625.97;5065012;28;20171;-73
2022/05/04 02:13:41;;;;;;;7.20;6.57;;;;;;;10.57;61.66;94615.88;5065931;28;20641;-73
2022/05/04 02:16:07;;;;;;;8.40;7.27;;;;;;;10.29;62.57;94624.56;5067609;28;20514;-73
2022/05/04 02:18:33;;;;;;;6.97;6.30;;;;;;;10.43;61.54;94617.63;5066800;28;20163;-72
2022/05/04 02:20:59;;;;;;;7.00;6.37;;;;;;;10.67;60.90;94618.94;5053935;28;20219;-72
2022/05/04 02:23:24;;;;;;;7.73;6.47;;;;;;;10.41;62.00;94622.25;5056177;28;20417;-72
2022/05/04 02:25:50;;;;;;;7.47;6.77;;;;;;;10.67;60.81;94622.38;5067515;28;20481;-72
2022/05/04 02:28:16;;;;;;;7.63;6.93;;;;;;;9.99;63.47;94618.75;5063098;28;20179;-72
2022/05/04 02:30:41;;;;;;;9.27;8.47;;;;;;;10.13;63.14;94628.28;5067528;28;20234;-73
2022/05/04 02:33:07;;;;;;;7.77;7.07;;;;;;;10.19;62.44;94627.53;5066460;28;20183;-72
2022/05/04 02:38:16;;;;;;;8.47;7.20;;;;;;;10.30;62.76;94620.94;5067496;28;20196;-72
2022/05/04 02:40:41;;;;;;;8.07;7.30;;;;;;;10.35;62.80;94618.59;5066588;28;20429;-72
2022/05/04 02:43:07;;;;;;;9.40;8.40;;;;;;;10.40;62.74;94620.66;5067049;28;20174;-73
2022/05/04 02:45:34;;;;;;;8.80;7.93;;;;;;;10.48;62.21;94623.09;5066705;28;20261;-72
2022/05/04 02:47:59;;;;;;;8.70;7.77;;;;;;;10.26;62.32;94625.78;5066579;28;20187;-72
2022/05/04 02:50:25;;;;;;;7.83;7.13;;;;;;;10.22;62.11;94628.94;5066828;28;20428;-72
2022/05/04 02:52:50;;;;;;;8.53;7.50;;;;;;;10.25;61.78;94631.19;5066451;28;20220;-73
2022/05/04 02:55:16;;;;;;;8.20;7.40;;;;;;;10.15;62.33;94634.16;5065830;28;20417;-72
2022/05/04 02:57:41;;;;;;;10.67;7.67;;;;;;;10.28;62.46;94634.22;5060964;28;20666;-72
2022/05/04 03:00:08;;;;;;;9.53;8.73;;;;;;;10.31;62.25;94644.31;5066951;28;20193;-72
2022/05/04 03:02:33;;;;;;;9.93;8.47;;;;;;;10.39;62.14;94648.59;5066279;28;20269;-72
2022/05/04 03:05:04;;;;;;;12.70;7.90;;;;;;;10.30;62.00;94650.56;5066716;28;20421;-72
2022/05/04 03:07:31;;;;;;;9.23;8.33;;;;;;;10.34;61.60;94658.84;5066287;28;20213;-73
2022/05/04 03:09:57;;;;;;;10.40;8.03;;;;;;;10.45;61.38;94668.78;5065477;28;20449;-72
2022/05/04 03:12:23;;;;;;;8.43;7.63;;;;;;;10.92;59.78;94666.34;5066456;28;20466;-72
2022/05/04 03:14:49;;;;;;;9.83;8.53;;;;;;;10.38;61.12;94669.69;5062395;28;20418;-71
2022/05/04 03:17:14;;;;;;;8.73;7.80;;;;;;;10.50;61.12;94673.41;5058611;28;20440;-72
2022/05/04 03:19:58;;;;;;;8.50;7.60;;;;;;;10.32;62.02;94676.50;5061572;28;20488;-72
2022/05/04 03:22:25;;;;;;;9.60;8.70;;;;;;;9.56;63.90;94688.38;5059316;28;20222;-72
2022/05/04 03:24:50;;;;;;;9.03;8.13;;;;;;;9.77;62.93;94674.50;5072823;28;20529;-72
2022/05/04 03:27:16;;;;;;;16.50;8.80;;;;;;;9.67;63.27;94676.59;5066143;28;20915;-73
2022/05/04 03:29:42;;;;;;;11.57;8.63;;;;;;;10.05;61.82;94681.53;5066185;28;20225;-72
2022/05/04 03:32:08;;;;;;;9.93;8.60;;;;;;;9.70;63.38;94668.41;5058501;28;20175;-72
2022/05/04 03:34:33;;;;;;;8.00;7.20;;;;;;;10.05;62.64;94673.69;5066120;28;20178;-71
2022/05/04 03:36:59;;;;;;;9.27;8.37;;;;;;;10.23;62.95;94668.00;5065406;28;20440;-72
2022/05/04 03:39:26;;;;;;;8.27;7.47;;;;;;;10.39;62.06;94679.19;5065682;28;20205;-72
2022/05/04 03:41:52;;;;;;;11.77;8.37;;;;;;;10.54;62.30;94677.25;5050968;28;20234;-72
2022/05/04 03:44:17;;;;;;;11.10;8.00;;;;;;;10.47;61.78;94679.03;5064577;28;20425;-73
2022/05/04 03:46:44;;;;;;;10.13;9.13;;;;;;;10.75;60.69;94677.16;5066420;28;20183;-73
2022/05/04 03:49:10;;;;;;;10.20;9.30;;;;;;;10.74;60.64;94680.78;5064144;28;20213;-73
2022/05/04 03:51:36;;;;;;;13.00;8.30;;;;;;;10.54;61.54;94677.25;5065883;28;20425;-73
2022/05/04 03:54:02;;;;;;;9.60;8.70;;;;;;;10.50;61.91;94679.44;5063949;28;20409;-72
2022/05/04 03:56:27;;;;;;;9.83;8.73;;;;;;;10.53;61.99;94680.88;5065483;28;20440;-72
2022/05/04 03:58:53;;;;;;;9.53;8.53;;;;;;;10.59;61.93;94682.72;5065891;28;20297;-73
2022/05/04 04:01:20;;;;;;;8.60;7.77;;;;;;;10.90;60.82;94678.84;5054429;28;20279;-72
2022/05/04 04:03:46;;;;;;;10.67;9.50;;;;;;;11.00;60.37;94673.22;5065290;28;20257;-73
2022/05/04 04:06:11;;;;;;;9.67;8.73;;;;;;;11.20;60.18;94676.72;5060624;28;20432;-72
2022/05/04 04:08:37;;;;;;;9.80;8.80;;;;;;;11.15;60.48;94676.50;5065527;28;20425;-72
2022/05/04 04:11:03;;;;;;;12.30;11.10;;;;;;;10.65;62.40;94691.63;5058489;28;20545;-72
2022/05/04 04:13:29;;;;;;;10.33;9.10;;;;;;;10.65;62.04;94692.41;5064883;28;20403;-72
2022/05/04 04:15:56;;;;;;;11.03;9.20;;;;;;;10.81;61.58;94691.28;5064962;28;20432;-72
2022/05/04 04:18:26;;;;;;;10.07;8.90;;;;;;;10.67;62.01;94692.22;5064602;28;20413;-73
2022/05/04 04:23:37;;;;;;;13.03;10.07;;;;;;;11.19;60.49;94708.34;5064437;28;20462;-72
2022/05/04 04:26:04;;;;;;;13.37;10.30;;;;;;;11.12;60.19;94711.75;5064699;28;20424;-72
2022/05/04 04:28:31;;;;;;;13.50;12.17;;;;;;;10.55;61.76;94711.09;5064565;28;20845;-73
2022/05/04 04:30:56;;;;;;;14.07;12.10;;;;;;;10.48;62.63;94712.84;5064591;28;20440;-72
2022/05/04 04:33:26;;;;;;;19.63;14.63;;;;;;;10.59;63.05;94716.75;5062614;28;20469;-72
2022/05/04 04:35:52;;;;;;;18.43;16.73;;;;;;;10.93;61.69;94717.72;5060960;28;20282;-72
2022/05/04 04:38:18;;;;;;;16.87;15.27;;;;;;;11.22;61.21;94718.44;5064780;28;20425;-73
2022/05/04 04:40:43;;;;;;;15.80;14.20;;;;;;;11.14;61.19;94720.22;5064050;28;20504;-72
2022/05/04 04:43:10;;;;;;;14.97;13.47;;;;;;;11.46;60.06;94720.53;5064862;28;20190;-73
2022/05/04 04:45:36;;;;;;;13.57;12.30;;;;;;;11.91;59.42;94726.09;5054970;28;20194;-72
2022/05/04 04:48:01;;;;;;;15.70;14.23;;;;;;;12.02;58.87;94723.88;5062865;28;20554;-72
2022/05/04 04:50:27;;;;;;;15.80;14.40;;;;;;;11.88;58.68;94715.97;5064584;28;20413;-72
2022/05/04 04:52:52;;;;;;;18.70;15.90;;;;;;;11.17;61.55;94720.84;5063793;28;20608;-72
2022/05/04 04:55:18;;;;;;;19.07;17.13;;;;;;;11.73;59.42;94718.78;5053248;28;20198;-71
2022/05/04 04:57:43;;;;;;;17.63;15.50;;;;;;;11.85;58.87;94716.34;5059856;28;20182;-71
2022/05/04 05:00:09;;;;;;;19.00;15.07;;;;;;;11.58;59.36;94714.72;5064117;28;20213;-72
2022/05/04 05:02:35;;;;;;;15.97;14.37;;;;;;;11.61;59.22;94716.94;5056895;28;20211;-71
2022/05/04 05:05:02;;;;;;;19.30;14.03;;;;;;;11.51;59.56;94720.75;5057682;28;20492;-71
2022/05/04 05:07:28;;;;;;;15.23;12.80;;;;;;;11.80;59.09;94716.19;5064714;28;20186;-72
2022/05/04 05:09:54;;;;;;;14.57;12.93;;;;;;;12.32;57.85;94711.16;5064107;28;20452;-71
2022/05/04 05:12:21;;;;;;;14.37;12.80;;;;;;;12.73;55.84;94717.97;5064391;28;20453;-72
2022/05/04 05:17:32;;;;;;;13.40;11.90;;;;;;;12.27;57.17;94721.44;5063449;28;20540;-71
2022/05/04 05:19:57;;;;;;;15.07;13.30;;;;;;;12.89;55.45;94729.84;5064206;28;20424;-72
2022/05/04 05:22:23;;;;;;;15.93;12.73;;;;;;;12.70;56.76;94721.81;5059440;28;20465;-71
2022/05/04 05:24:48;;;;;;;13.50;12.17;;;;;;;12.77;56.48;94727.06;5064579;28;20187;-72
2022/05/04 05:27:14;;;;;;;14.03;12.33;;;;;;;12.17;57.45;94728.94;5064266;28;20335;-71
2022/05/04 05:29:40;;;;;;;19.93;13.80;;;;;;;12.63;55.82;94731.50;5064052;28;20257;-72
2022/05/04 05:32:05;;;;;;;14.90;12.80;;;;;;;12.47;56.96;94730.13;5063918;28;20425;-72
2022/05/04 05:34:33;;;;;;;14.23;11.77;;;;;;;12.75;55.97;94728.25;5062667;28;20186;-71
2022/05/04 05:36:59;;;;;;;14.50;12.20;;;;;;;13.15;54.80;94725.53;5063334;28;20175;-71
2022/05/04 05:39:24;;;;;;;12.50;11.23;;;;;;;13.19;54.27;94721.47;5063412;28;20447;-72
2022/05/04 05:41:50;;;;;;;15.87;12.53;;;;;;;12.64;55.69;94716.56;5063670;28;20638;-73
2022/05/04 05:44:15;;;;;;;15.57;13.60;;;;;;;13.32;55.27;94723.25;5063716;28;20257;-71
2022/05/04 05:46:41;;;;;;;14.43;12.93;;;;;;;13.91;53.40;94716.06;5050429;28;20186;-72
2022/05/04 05:49:06;;;;;;;13.67;12.37;;;;;;;14.01;52.71;94711.91;5061438;28;20192;-72
2022/05/04 05:51:31;;;;;;;13.23;12.03;;;;;;;14.13;52.47;94713.84;5063816;28;20175;-72
2022/05/04 05:53:57;;;;;;;15.70;14.07;;;;;;;14.06;52.45;94706.81;5063558;28;20236;-72
2022/05/04 05:56:22;;;;;;;13.83;11.30;;;;;;;13.59;53.21;94708.97;5044108;28;20180;-71
2022/05/04 05:58:48;;;;;;;13.77;12.53;;;;;;;13.44;54.59;94711.06;5056604;28;20179;-71
2022/05/04 06:01:13;;;;;;;15.37;13.07;;;;;;;14.21;52.15;94701.25;5060360;28;20202;-72
2022/05/04 06:03:38;;;;;;;13.33;12.10;;;;;;;13.80;53.23;94705.19;5060866;28;20332;-71
2022/05/04 06:06:04;;;;;;;14.37;12.87;;;;;;;12.75;55.39;94715.13;5061402;28;20232;-71
2022/05/04 06:08:29;;;;;;;12.90;11.70;;;;;;;13.51;53.50;94711.03;5062379;28;20257;-71
2022/05/04 06:10:55;;;;;;;14.53;12.77;;;;;;;14.26;52.04;94713.75;5067697;28;20247;-72
2022/05/04 06:13:20;;;;;;;14.67;12.90;;;;;;;14.61;50.21;94711.44;5067381;28;20205;-71
2022/05/04 06:15:46;;;;;;;13.87;11.30;;;;;;;14.01;50.45;94714.56;5068588;28;20189;-72
2022/05/04 06:18:12;;;;;;;13.60;12.30;;;;;;;14.30;49.76;94714.94;5067212;28;20174;-72
2022/05/04 06:20:38;;;;;;;13.03;11.83;;;;;;;13.77;52.23;94729.31;5066973;28;20581;-72
2022/05/04 06:23:04;;;;;;;15.93;10.87;;;;;;;13.40;53.28;94721.19;5065138;28;20209;-71
2022/05/04 06:25:29;;;;;;;14.97;13.40;;;;;;;14.01;52.58;94724.28;5067267;28;20417;-72
2022/05/04 06:27:55;;;;;;;11.80;10.60;;;;;;;13.32;53.89;94724.06;5066925;28;20505;-71
2022/05/04 06:35:48;;;;;;;24.93;14.30;;;;;;;13.97;52.65;94723.09;5062085;28;20427;-71
2022/05/04 06:38:14;;;;;;;16.00;12.87;;;;;;;14.27;51.14;94719.84;5066839;28;20421;-71
2022/05/04 06:40:39;;;;;;;14.97;12.47;;;;;;;14.92;49.76;94720.25;5066241;28;20213;-71
2022/05/04 06:43:05;;;;;;;18.57;16.70;;;;;;;15.06;49.51;94717.47;5064336;28;20206;-72
2022/05/04 06:45:30;;;;;;;18.90;17.00;;;;;;;14.49;51.42;94717.59;5066423;28;20183;-71
2022/05/04 06:47:56;;;;;;;19.33;17.63;;;;;;;14.44;51.94;94720.91;5066201;28;20181;-72
2022/05/04 06:50:22;;;;;;;18.97;17.17;;;;;;;14.91;50.03;94723.09;5061221;28;20554;-74
2022/05/04 06:52:47;;;;;;;21.00;18.10;;;;;;;14.85;50.96;94722.16;5091523;28;20205;-72
2022/05/04 06:55:13;;;;;;;24.67;18.47;;;;;;;15.05;49.78;94726.41;5065340;28;20185;-72
2022/05/04 06:57:39;;;;;;;19.23;17.30;;;;;;;15.33;49.45;94724.06;5066392;28;20641;-72
2022/05/04 07:00:06;;;;;;;18.40;16.60;;;;;;;15.63;48.04;94720.59;5063866;28;20429;-72
2022/05/04 07:02:33;;;;;;;19.50;17.03;;;;;;;15.37;49.65;94714.66;5065927;28;20195;-72
2022/05/04 07:04:59;;;;;;;18.43;16.90;;;;;;;15.54;49.42;94724.63;5064414;28;20488;-72
2022/05/04 07:07:25;;;;;;;21.50;17.30;;;;;;;16.07;48.39;94718.63;5064638;28;20445;-72
2022/05/04 07:09:50;;;;;;;20.27;17.97;;;;;;;15.83;49.18;94732.78;5065897;28;20432;-72
2022/05/04 07:12:16;;;;;;;18.30;16.33;;;;;;;15.64;49.51;94724.06;5066224;28;20432;-72
2022/05/04 07:14:41;;;;;;;16.47;14.80;;;;;;;15.99;47.57;94721.56;5060815;28;20193;-72
2022/05/04 07:17:12;;;;;;;18.93;15.03;;;;;;;16.25;47.49;94724.84;5064321;28;20257;-71
2022/05/04 07:19:37;;;;;;;15.10;13.30;;;;;;;17.02;45.90;94718.69;5058717;28;20194;-72
2022/05/04 07:22:03;;;;;;;13.87;12.53;;;;;;;16.92;45.98;94720.06;5055766;28;20453;-71
2022/05/04 07:24:28;;;;;;;14.30;13.10;;;;;;;16.98;45.38;94723.63;5070402;28;20178;-71
2022/05/04 07:26:54;;;;;;;17.73;13.10;;;;;;;17.22;45.02;94712.97;5063807;28;20229;-72
2022/05/04 07:29:20;;;;;;;14.63;13.33;;;;;;;17.29;44.44;94714.47;5065274;28;20269;-71
2022/05/04 07:31:45;;;;;;;15.07;13.73;;;;;;;17.49;44.55;94710.59;5061187;28;20202;-72
2022/05/04 07:34:14;;;;;;;14.50;13.10;;;;;;;16.20;46.86;94718.41;5064022;28;20246;-72
2022/05/04 07:36:39;;;;;;;16.10;13.37;;;;;;;16.16;47.66;94713.78;5062293;28;20622;-71
2022/05/04 07:39:05;;;;;;;13.50;12.10;;;;;;;16.71;46.73;94717.97;5063734;28;20428;-72
2022/05/04 07:44:14;;;;;;;18.60;11.90;;;;;;;17.32;45.20;94697.31;5052227;28;20205;-71
2022/05/04 07:46:41;;;;;;;20.10;13.43;;;;;;;17.69;44.15;94703.03;5065595;28;20429;-71
2022/05/04 07:49:07;;;;;;;15.97;12.70;;;;;;;17.27;45.27;94705.16;5060743;28;20190;-72
2022/05/04 07:51:32;;;;;;;14.47;13.13;;;;;;;16.78;46.11;94708.09;5064964;28;20421;-71
2022/05/04 07:53:58;;;;;;;14.33;12.67;;;;;;;17.52;45.26;94702.19;5064825;28;20182;-71
2022/05/04 07:56:23;;;;;;;14.50;13.20;;;;;;;17.44;45.36;94702.59;5058766;28;20182;-71
2022/05/04 07:58:49;;;;;;;14.57;12.00;;;;;;;18.22;43.50;94702.91;5059360;28;20251;-71
2022/05/04 08:04:16;;;;;;;11.53;10.37;;;;;;;18.60;41.50;94702.16;5064003;28;20174;-71
2022/05/04 08:06:42;;;;;;;9.97;8.90;;;;;;;19.19;40.47;94699.00;5064786;28;20433;-71
2022/05/04 08:09:08;;;;;;;12.40;9.03;;;;;;;19.45;40.20;94694.00;5065442;28;20436;-71
2022/05/04 08:11:33;;;;;;;8.90;8.00;;;;;;;18.36;42.36;94696.22;5060987;28;20175;-72
2022/05/04 08:13:59;;;;;;;9.03;7.37;;;;;;;18.36;42.12;94693.59;5062671;28;20232;-72
2022/05/04 08:16:24;;;;;;;9.77;8.00;;;;;;;18.68;41.22;94688.50;5063788;28;20228;-72
2022/05/04 08:18:50;;;;;;;17.97;8.40;;;;;;;19.72;39.44;94696.72;5065078;28;20182;-71
2022/05/04 08:21:15;;;;;;;47.17;13.53;;;;;;;19.77;39.50;94693.28;5063917;28;20197;-72
2022/05/04 08:23:41;;;;;;;29.20;10.63;;;;;;;19.94;39.44;94685.22;5064667;28;20184;-72
2022/05/04 08:26:06;;;;;;;24.93;9.37;;;;;;;20.76;37.41;94689.34;5064363;28;20175;-72
2022/05/04 08:28:31;;;;;;;9.83;6.13;;;;;;;20.26;37.71;94686.06;5064803;28;20178;-72
2022/05/04 08:30:57;;;;;;;12.33;6.40;;;;;;;20.28;38.04;94683.94;5053917;28;20179;-72
2022/05/04 08:33:23;;;;;;;11.97;5.47;;;;;;;20.42;37.99;94689.63;5063687;28;20658;-72
2022/05/04 08:35:48;;;;;;;6.47;5.10;;;;;;;20.90;36.41;94683.56;5061251;28;20190;-72
2022/05/04 08:38:14;;;;;;;6.60;4.83;;;;;;;20.48;37.89;94675.28;5063405;28;20242;-72
2022/05/04 08:40:40;;;;;;;7.70;3.97;;;;;;;20.80;36.91;94679.00;5063992;28;20186;-72
2022/05/04 08:43:07;;;;;;;4.00;3.60;;;;;;;19.82;38.27;94686.19;5072962;28;20578;-72
2022/05/04 08:45:39;;;;;;;7.47;4.37;;;;;;;21.02;36.14;94684.19;5070839;28;20170;-72
2022/05/04 08:48:07;;;;;;;5.73;4.30;;;;;;;20.30;35.98;94673.06;5064355;28;20768;-72
2022/05/04 08:50:34;;;;;;;6.33;2.77;;;;;;;20.16;35.45;94674.53;5051217;28;20427;-71
2022/05/04 08:53:01;;;;;;;4.27;3.33;;;;;;;21.14;33.85;94679.44;5064155;28;20453;-72
2022/05/04 08:55:26;;;;;;;3.70;3.03;;;;;;;20.60;34.25;94671.69;5064401;28;20454;-71
2022/05/04 08:57:54;;;;;;;3.33;2.67;;;;;;;20.09;33.30;94670.22;5064525;28;20429;-72
2022/05/04 09:00:20;;;;;;;2.57;1.90;;;;;;;20.66;32.94;94678.66;5064447;28;21047;-72
2022/05/04 09:02:45;;;;;;;3.33;2.10;;;;;;;20.25;34.26;94670.34;5064098;28;20472;-72
2022/05/04 09:05:23;;;;;;;2.57;2.37;;;;;;;20.26;34.31;94679.91;5061602;28;20421;-71
2022/05/04 09:07:50;;;;;;;2.33;2.23;;;;;;;20.28;34.55;94675.16;5091594;28;20196;-72
2022/05/04 09:10:21;;;;;;;2.33;2.13;;;;;;;21.26;33.26;94672.00;5063645;28;20421;-72
2022/05/04 09:12:48;;;;;;;5.70;3.03;;;;;;;21.75;33.14;94675.38;5057843;28;20430;-71
2022/05/04 09:15:23;;;;;;;2.57;2.37;;;;;;;21.09;34.10;94675.94;5064675;28;20448;-71
2022/05/04 09:18:02;;;;;;;3.10;2.60;;;;;;;20.83;34.59;94676.63;5060887;28;20428;-72
2022/05/04 09:20:48;;;;;;;3.60;3.40;;;;;;;21.50;33.35;94666.28;5059352;28;20413;-72
2022/05/04 09:23:24;;;;;;;3.20;2.90;;;;;;;21.16;34.20;94677.31;5063856;28;20421;-71
2022/05/04 09:25:55;;;;;;;2.30;2.20;;;;;;;21.36;34.42;94667.78;5096576;28;20516;-71
2022/05/04 09:28:24;;;;;;;2.70;2.50;;;;;;;22.20;33.09;94674.63;5057707;28;20417;-72
2022/05/04 09:30:49;;;;;;;3.00;2.70;;;;;;;21.54;34.81;94672.66;5062200;28;21007;-71
2022/05/04 09:33:27;;;;;;;2.23;2.13;;;;;;;22.81;32.04;94668.47;5064116;28;20466;-71
2022/05/04 09:35:53;;;;;;;3.40;3.10;;;;;;;23.14;32.08;94660.13;5057699;28;20247;-72
2022/05/04 09:46:42;;;;;;;2.47;2.27;;;;;;;21.96;33.39;94658.34;5068630;28;20523;-72
2022/05/04 09:49:12;;;;;;;4.20;2.90;;;;;;;22.23;32.06;94646.63;5068429;28;20420;-72
2022/05/04 09:51:39;;;;;;;3.70;3.10;;;;;;;22.93;31.60;94649.47;5068317;28;20424;-72
2022/05/04 09:54:13;;;;;;;2.53;2.43;;;;;;;22.87;31.32;94658.56;5063013;28;20784;-72
2022/05/04 09:56:39;;;;;;;2.47;2.37;;;;;;;23.51;30.31;94650.88;5060937;28;20437;-72
2022/05/04 09:59:05;;;;;;;2.60;2.40;;;;;;;23.92;29.08;94647.97;5066593;28;21121;-72
2022/05/04 10:01:32;;;;;;;2.17;2.03;;;;;;;23.92;29.49;94648.78;5060394;28;20459;-72
2022/05/04 10:04:00;;;;;;;2.50;2.30;;;;;;;23.65;30.42;94648.38;5047818;28;20449;-72
2022/05/04 10:06:26;;;;;;;2.53;2.33;;;;;;;24.24;29.56;94650.13;5059990;28;20450;-72
2022/05/04 10:08:51;;;;;;;5.73;2.40;;;;;;;23.74;30.12;94646.75;5067654;28;20424;-72
2022/05/04 10:11:18;;;;;;;3.07;2.77;;;;;;;23.33;30.86;94642.41;5067052;28;20172;-72
2022/05/04 10:13:44;;;;;;;2.40;2.20;;;;;;;24.44;28.88;94632.31;5064763;28;20182;-72
2022/05/04 10:16:11;;;;;;;2.23;2.03;;;;;;;24.17;29.42;94636.31;5057864;28;20453;-72
2022/05/04 10:18:38;;;;;;;2.27;2.10;;;;;;;23.34;29.02;94622.66;5067040;28;20178;-72
2022/05/04 10:21:13;;;;;;;3.73;2.50;;;;;;;23.46;29.26;94626.84;5067027;28;20422;-72
2022/05/04 10:23:46;;;;;;;3.20;2.60;;;;;;;24.05;28.65;94628.63;5066489;28;20439;-72
2022/05/04 10:26:12;;;;;;;1.97;1.87;;;;;;;24.54;27.88;94622.34;5067007;28;20463;-74
2022/05/04 10:28:42;;;;;;;4.13;2.97;;;;;;;24.04;28.15;94615.56;5066451;28;20413;-72
2022/05/04 10:31:11;;;;;;;2.80;2.00;;;;;;;23.67;28.39;94624.88;5067034;28;20440;-72
2022/05/04 10:33:38;;;;;;;2.90;2.70;;;;;;;23.29;30.02;94624.53;5066386;28;20485;-71
2022/05/04 10:36:15;;;;;;;2.03;1.93;;;;;;;22.61;30.31;94599.13;5059431;28;20444;-73
2022/05/04 10:38:45;;;;;;;3.73;2.07;;;;;;;23.84;28.75;94619.97;5051593;28;20512;-72
2022/05/04 10:41:12;;;;;;;2.17;2.07;;;;;;;25.14;28.07;94613.91;5066350;28;20476;-72
2022/05/04 10:43:48;;;;;;;2.10;2.00;;;;;;;23.93;28.68;94607.59;5066721;28;20409;-72
2022/05/04 10:46:16;;;;;;;2.90;2.43;;;;;;;23.72;28.55;94606.13;5066812;28;20520;-73
2022/05/04 10:48:58;;;;;;;2.47;2.10;;;;;;;23.57;28.79;94605.16;5050048;28;20423;-71
2022/05/04 10:51:29;;;;;;;3.50;2.47;;;;;;;24.17;27.85;94606.88;5060631;28;20509;-72
2022/05/04 10:53:58;;;;;;;3.17;2.43;;;;;;;22.58;29.98;94605.03;5058182;28;20462;-72
2022/05/04 10:56:26;;;;;;;4.70;2.17;;;;;;;22.29;30.48;94597.63;5066302;28;20431;-72
2022/05/04 10:58:52;;;;;;;2.27;2.07;;;;;;;22.35;30.34;94599.19;5066437;28;20445;-72
2022/05/04 11:01:27;;;;;;;2.40;2.17;;;;;;;22.40;30.20;94596.53;5066261;28;20563;-72
2022/05/04 11:04:11;;;;;;;3.30;3.00;;;;;;;22.31;30.32;94595.47;5067085;28;20427;-72
2022/05/04 11:06:49;;;;;;;2.13;1.97;;;;;;;21.96;30.91;94591.72;5066243;28;20432;-71
2022/05/04 11:09:18;;;;;;;1.90;1.80;;;;;;;22.74;30.56;94587.88;5066311;28;20434;-72
2022/05/04 11:11:45;;;;;;;2.40;2.20;;;;;;;23.69;29.10;94586.09;5065183;28;20432;-72
2022/05/04 11:14:13;;;;;;;3.00;2.70;;;;;;;24.47;27.83;94572.88;5066049;28;20505;-72
2022/05/04 11:16:39;;;;;;;2.27;2.07;;;;;;;25.13;27.04;94571.34;5066373;28;20420;-72
2022/05/04 11:19:05;;;;;;;2.43;2.17;;;;;;;24.48;27.21;94569.13;5067801;28;20450;-72
2022/05/04 11:21:32;;;;;;;4.40;2.33;;;;;;;24.69;27.08;94573.22;5067824;28;20456;-72
2022/05/04 11:24:03;;;;;;;2.30;2.07;;;;;;;24.22;28.17;94576.63;5055113;28;20424;-72
2022/05/04 11:26:50;;;;;;;2.17;1.90;;;;;;;22.71;30.12;94576.94;5066159;28;20413;-72
2022/05/04 11:29:17;;;;;;;4.13;2.23;;;;;;;23.30;29.87;94570.84;5056173;28;20472;-72
2022/05/04 11:31:52;;;;;;;2.70;2.50;;;;;;;23.05;28.90;94566.47;5062764;28;20429;-72
2022/05/04 11:34:18;;;;;;;6.83;2.03;;;;;;;23.67;28.46;94566.06;5066008;28;20782;-71
2022/05/04 11:36:45;;;;;;;4.70;2.83;;;;;;;23.71;28.21;94573.28;5065434;28;20460;-72
2022/05/04 11:39:14;;;;;;;2.30;2.10;;;;;;;23.26;28.30;94561.00;5066038;28;20175;-72
2022/05/04 11:41:39;;;;;;;2.43;2.27;;;;;;;23.39;28.78;94565.72;5064415;28;20473;-72
2022/05/04 11:44:05;;;;;;;4.43;2.47;;;;;;;23.78;28.02;94568.41;5063911;28;20429;-72
2022/05/04 11:46:31;;;;;;;2.13;1.97;;;;;;;24.42;27.29;94567.59;5050689;28;20205;-72
2022/05/04 11:48:57;;;;;;;9.03;2.60;;;;;;;24.38;27.46;94556.66;5065176;28;20252;-72
2022/05/04 11:51:23;;;;;;;2.60;2.30;;;;;;;24.10;27.90;94556.38;5065495;28;20193;-72
2022/05/04 11:53:48;;;;;;;3.03;2.20;;;;;;;22.38;29.52;94555.97;5065080;28;20431;-72
2022/05/04 11:56:14;;;;;;;2.27;2.10;;;;;;;23.42;28.37;94567.06;5065225;28;20300;-72